To NAV CANADA Home Page Login to a new session Search on AWWS site Feedback and Comments Disclaimer Vers la page française équivalente Tips FAQ What's new on the site To the Forecasts and Observations / NOTAM section To "File a Flight Plan" website Publications and other links Update of the User's profile FIC Telephone Numbers My Weather Data Folder Route Weather Data Regional Weather Data Local Weather Data To the Forecasts and Observations / NOTAM section
Request Generated 06/26/2017 at 22:36:05 UTC . Weather information available at that time is displayed.

METAR/TAF

TRENTON/ON    

SPECI CYTR 262228Z 36003KT 15SM -SHRA FEW010 BKN024 OVC070 13/13 A2994 RMK SF2SC5AC1 CB NE MOVG E SLP142=
SPECI CYTR 262210Z 35004KT 10SM -TSRA BKN010 OVC020 13/12 A2995 RMK SF5SC3 CB NE MOVG E OCNL LTGICCCCG PRESFR SLP145=
METAR CYTR 262200Z 26005G16KT 6SM TSRA BR BKN006 OVC020 13/12 A2997 RMK SF5SC3 CB EMBD MOVG E FRQ LTGICCCCG SLP150=
SPECI CYTR 262154Z 25010G27KT 4SM TSRA BR BKN006 OVC020 13/12 A2998 RMK SF5SC3 CB EMBD MOVG E FRQ LTGICCCCG PRESRR SLP153=
SPECI CYTR 262147Z 28023G28KT 1SM +TSRA BR SCT006 OVC020 14/12 A2997 RMK SF4SC4 CB EMBD MOVG E FRQ LTGICCCCG PRESRR SLP151=
SPECI CYTR 262143Z 28019G28KT 2 1/2SM +TSRA BR FEW014 OVC023 15/12 A2997 RMK SF2SC6 CB EMBD MOVG E FRQ LTGICCCCG PRESRR SLP149=
SPECI CYTR 262134Z 23005KT 6SM TSRA BR FEW014 OVC027 17/13 A2991 RMK SF2SC6 CB EMBD MOVG E FRQ LTGICCCCG SLP130=
SPECI CYTR 262121Z 19004KT 10SM -TSRA FEW014 OVC027 17/13 A2991 RMK SF2SC6 FRQ LTGICCCCG CB EMBD OVRHD MOVG E SLP129=
SPECI CYTR 262108Z 21011KT 6SM -TSRA BR OVC054 19/12 A2992 RMK SC8 OCNL LTGICCCCG CB EMBD OVRHD MOVG E SLP134=
METAR CYTR 262100Z 20007KT 15SM TS SCT039 OVC060 19/13 A2992 RMK SC3SC5 OCNL LTGICCCCG CB EMBD NW MOVG E SLP133=
SPECI CYTR 262052Z 20007KT 15SM TS SCT039 OVC060 20/14 A2992 RMK SC3SC5 OCNL LTGICCCCG CB EMBD NW MOVG E SLP132=
METAR CYTR 262000Z 21009KT 15SM FEW039 BKN087 BKN250 20/14 A2992 RMK SC2AC2CI2 SLP135=

TAF AMD CYTR 262057Z 2620/2718 22008KT P6SM -SHRA SCT008 BKN040 TEMPO
2620/2624 VRB20G35KT 1SM +TSRA BR BKN008 OVC040CB
FM270000 22008KT P6SM -SHRA SCT015 BKN040 TEMPO 2700/2701 3SM
-SHRA BR BKN015 OVC040 PROB30 2700/2701 VRB20G35KT 1SM +TSRA BR
BKN008 OVC040CB
FM270100 22005KT P6SM SCT080 PROB30 2704/2711 2SM BR BKN008
FM271500 24010G20KT P6SM SCT020 BKN030 TEMPO 2715/2718 P6SM -SHRA
BKN020 OVC030 PROB30 2715/2718 VRB15G30KT 2SM TSRA BR BKN015
OVC030CB
RMK NXT FCST BY 270000Z=
Your time UTC time
Weather data provided by Environment Canada and NAV CANADA